sensor_id;sensor_type;location;lat;lon;timestamp;temperature;humidity
63966;DHT22;50151;52.030;5.350;2023-02-12T00:02:04;7.90;99.90
63966;DHT22;50151;52.030;5.350;2023-02-12T00:04:31;7.90;99.90
63966;DHT22;50151;52.030;5.350;2023-02-12T00:06:57;7.90;99.90
63966;DHT22;50151;52.030;5.350;2023-02-12T00:09:24;7.90;99.90
63966;DHT22;50151;52.030;5.350;2023-02-12T00:11:51;7.90;99.90
63966;DHT22;50151;52.030;5.350;2023-02-12T00:14:17;7.90;99.90
63966;DHT22;50151;52.030;5.350;2023-02-12T00:16:44;7.90;99.90
63966;DHT22;50151;52.030;5.350;2023-02-12T00:19:11;7.90;99.90
63966;DHT22;50151;52.030;5.350;2023-02-12T00:21:37;7.90;99.90
63966;DHT22;50151;52.030;5.350;2023-02-12T00:24:04;7.90;99.90
63966;DHT22;50151;52.030;5.350;2023-02-12T00:26:31;7.90;99.90
63966;DHT22;50151;52.030;5.350;2023-02-12T00:28:58;7.90;99.90
63966;DHT22;50151;52.030;5.350;2023-02-12T00:31:26;7.90;99.90
63966;DHT22;50151;52.030;5.350;2023-02-12T00:33:54;7.90;99.90
63966;DHT22;50151;52.030;5.350;2023-02-12T00:36:24;7.90;99.90
63966;DHT22;50151;52.030;5.350;2023-02-12T00:38:52;7.90;99.90
63966;DHT22;50151;52.030;5.350;2023-02-12T00:41:20;7.90;99.90
63966;DHT22;50151;52.030;5.350;2023-02-12T00:43:48;7.90;99.90
63966;DHT22;50151;52.030;5.350;2023-02-12T00:46:14;7.90;99.90
63966;DHT22;50151;52.030;5.350;2023-02-12T00:48:42;7.90;99.90
63966;DHT22;50151;52.030;5.350;2023-02-12T00:51:08;7.80;99.90
63966;DHT22;50151;52.030;5.350;2023-02-12T00:53:35;7.80;99.90
63966;DHT22;50151;52.030;5.350;2023-02-12T00:56:02;7.80;99.90
63966;DHT22;50151;52.030;5.350;2023-02-12T00:58:29;7.80;99.90
63966;DHT22;50151;52.030;5.350;2023-02-12T01:00:56;7.80;99.90
63966;DHT22;50151;52.030;5.350;2023-02-12T01:03:23;7.80;99.90
63966;DHT22;50151;52.030;5.350;2023-02-12T01:05:50;7.80;99.90
63966;DHT22;50151;52.030;5.350;2023-02-12T01:08:18;7.80;99.90
63966;DHT22;50151;52.030;5.350;2023-02-12T01:10:44;7.80;99.90
63966;DHT22;50151;52.030;5.350;2023-02-12T01:13:19;7.80;99.90
63966;DHT22;50151;52.030;5.350;2023-02-12T01:15:46;7.80;99.90
63966;DHT22;50151;52.030;5.350;2023-02-12T01:18:12;7.80;99.90
63966;DHT22;50151;52.030;5.350;2023-02-12T01:20:41;7.80;99.90
63966;DHT22;50151;52.030;5.350;2023-02-12T01:23:08;7.80;99.90
63966;DHT22;50151;52.030;5.350;2023-02-12T01:25:37;7.80;99.90
63966;DHT22;50151;52.030;5.350;2023-02-12T01:28:03;7.80;99.90
63966;DHT22;50151;52.030;5.350;2023-02-12T01:30:30;7.70;99.90
63966;DHT22;50151;52.030;5.350;2023-02-12T01:32:57;7.70;99.90
63966;DHT22;50151;52.030;5.350;2023-02-12T01:35:23;7.70;99.90
63966;DHT22;50151;52.030;5.350;2023-02-12T01:37:50;7.70;99.90
63966;DHT22;50151;52.030;5.350;2023-02-12T01:40:17;7.60;99.90
63966;DHT22;50151;52.030;5.350;2023-02-12T01:42:44;7.70;99.90
63966;DHT22;50151;52.030;5.350;2023-02-12T01:45:27;7.60;99.90
63966;DHT22;50151;52.030;5.350;2023-02-12T01:47:59;7.60;99.90
63966;DHT22;50151;52.030;5.350;2023-02-12T01:50:27;7.60;99.90
63966;DHT22;50151;52.030;5.350;2023-02-12T01:52:56;7.60;99.90
63966;DHT22;50151;52.030;5.350;2023-02-12T01:55:24;7.60;99.90
63966;DHT22;50151;52.030;5.350;2023-02-12T01:57:51;7.60;99.90
63966;DHT22;50151;52.030;5.350;2023-02-12T02:00:23;7.60;99.90
63966;DHT22;50151;52.030;5.350;2023-02-12T02:02:54;7.60;99.90
63966;DHT22;50151;52.030;5.350;2023-02-12T02:05:32;7.60;99.90
63966;DHT22;50151;52.030;5.350;2023-02-12T02:08:01;7.60;99.90
63966;DHT22;50151;52.030;5.350;2023-02-12T02:10:29;7.60;99.90
63966;DHT22;50151;52.030;5.350;2023-02-12T02:12:56;7.60;99.90
63966;DHT22;50151;52.030;5.350;2023-02-12T02:15:46;7.50;99.90
63966;DHT22;50151;52.030;5.350;2023-02-12T02:18:26;7.60;99.90
63966;DHT22;50151;52.030;5.350;2023-02-12T02:24:21;7.50;99.90
63966;DHT22;50151;52.030;5.350;2023-02-12T02:27:09;7.50;99.90
63966;DHT22;50151;52.030;5.350;2023-02-12T02:33:03;7.60;99.90
63966;DHT22;50151;52.030;5.350;2023-02-12T02:40:50;7.60;99.90
63966;DHT22;50151;52.030;5.350;2023-02-12T02:43:25;7.50;99.90
63966;DHT22;50151;52.030;5.350;2023-02-12T02:46:10;7.50;99.90
63966;DHT22;50151;52.030;5.350;2023-02-12T02:48:45;7.50;99.90
63966;DHT22;50151;52.030;5.350;2023-02-12T02:51:18;7.50;99.90
63966;DHT22;50151;52.030;5.350;2023-02-12T02:53:53;7.50;99.90
63966;DHT22;50151;52.030;5.350;2023-02-12T02:56:23;7.50;99.90
63966;DHT22;50151;52.030;5.350;2023-02-12T02:59:02;7.50;99.90
63966;DHT22;50151;52.030;5.350;2023-02-12T03:01:43;7.50;99.90
63966;DHT22;50151;52.030;5.350;2023-02-12T03:04:19;7.50;99.90
63966;DHT22;50151;52.030;5.350;2023-02-12T03:07:08;7.50;99.90
63966;DHT22;50151;52.030;5.350;2023-02-12T03:09:39;7.40;99.90
63966;DHT22;50151;52.030;5.350;2023-02-12T03:12:24;7.40;99.90
63966;DHT22;50151;52.030;5.350;2023-02-12T03:15:02;7.40;99.90
63966;DHT22;50151;52.030;5.350;2023-02-12T03:17:34;7.40;99.90
63966;DHT22;50151;52.030;5.350;2023-02-12T03:20:16;7.40;99.90
63966;DHT22;50151;52.030;5.350;2023-02-12T03:22:53;7.40;99.90
63966;DHT22;50151;52.030;5.350;2023-02-12T03:25:27;7.40;99.90
63966;DHT22;50151;52.030;5.350;2023-02-12T03:30:57;7.40;99.90
63966;DHT22;50151;52.030;5.350;2023-02-12T03:33:40;7.40;99.90
63966;DHT22;50151;52.030;5.350;2023-02-12T03:36:21;7.40;99.90
63966;DHT22;50151;52.030;5.350;2023-02-12T03:38:54;7.40;99.90
63966;DHT22;50151;52.030;5.350;2023-02-12T03:41:34;7.40;99.90
63966;DHT22;50151;52.030;5.350;2023-02-12T03:44:22;7.40;99.90
63966;DHT22;50151;52.030;5.350;2023-02-12T03:49:29;7.40;99.90
63966;DHT22;50151;52.030;5.350;2023-02-12T03:51:58;7.40;99.90
63966;DHT22;50151;52.030;5.350;2023-02-12T03:54:25;7.40;99.90
63966;DHT22;50151;52.030;5.350;2023-02-12T03:57:06;7.40;99.90
63966;DHT22;50151;52.030;5.350;2023-02-12T03:59:35;7.40;99.90
63966;DHT22;50151;52.030;5.350;2023-02-12T04:02:03;7.40;99.90
63966;DHT22;50151;52.030;5.350;2023-02-12T04:04:30;7.40;99.90
63966;DHT22;50151;52.030;5.350;2023-02-12T04:06:57;7.40;99.90
63966;DHT22;50151;52.030;5.350;2023-02-12T04:09:25;7.40;99.90
63966;DHT22;50151;52.030;5.350;2023-02-12T04:11:57;7.40;99.90
63966;DHT22;50151;52.030;5.350;2023-02-12T04:14:49;7.40;99.90
63966;DHT22;50151;52.030;5.350;2023-02-12T04:23:06;7.30;99.90
63966;DHT22;50151;52.030;5.350;2023-02-12T04:25:45;7.30;99.90
63966;DHT22;50151;52.030;5.350;2023-02-12T04:31:42;7.30;99.90
63966;DHT22;50151;52.030;5.350;2023-02-12T04:34:16;7.30;99.90
63966;DHT22;50151;52.030;5.350;2023-02-12T04:36:56;7.30;99.90
63966;DHT22;50151;52.030;5.350;2023-02-12T04:39:30;7.30;99.90
63966;DHT22;50151;52.030;5.350;2023-02-12T04:41:59;7.30;99.90
63966;DHT22;50151;52.030;5.350;2023-02-12T04:44:29;7.30;99.90
63966;DHT22;50151;52.030;5.350;2023-02-12T04:46:56;7.30;99.90
63966;DHT22;50151;52.030;5.350;2023-02-12T04:49:24;7.20;99.90
63966;DHT22;50151;52.030;5.350;2023-02-12T04:51:51;7.30;99.90
63966;DHT22;50151;52.030;5.350;2023-02-12T04:54:20;7.20;99.90
63966;DHT22;50151;52.030;5.350;2023-02-12T04:56:47;7.20;99.90
63966;DHT22;50151;52.030;5.350;2023-02-12T04:59:14;7.30;99.90
63966;DHT22;50151;52.030;5.350;2023-02-12T05:01:41;7.30;99.90
63966;DHT22;50151;52.030;5.350;2023-02-12T05:04:11;7.20;99.90
63966;DHT22;50151;52.030;5.350;2023-02-12T05:06:40;7.30;99.90
63966;DHT22;50151;52.030;5.350;2023-02-12T05:09:09;7.20;99.90
63966;DHT22;50151;52.030;5.350;2023-02-12T05:11:35;7.20;99.90
63966;DHT22;50151;52.030;5.350;2023-02-12T05:14:02;7.20;99.90
63966;DHT22;50151;52.030;5.350;2023-02-12T05:16:29;7.30;99.90
63966;DHT22;50151;52.030;5.350;2023-02-12T05:18:56;7.20;99.90
63966;DHT22;50151;52.030;5.350;2023-02-12T05:21:22;7.20;99.90
63966;DHT22;50151;52.030;5.350;2023-02-12T05:23:49;7.20;99.90
63966;DHT22;50151;52.030;5.350;2023-02-12T05:26:18;7.20;99.90
63966;DHT22;50151;52.030;5.350;2023-02-12T05:28:45;7.20;99.90
63966;DHT22;50151;52.030;5.350;2023-02-12T05:31:15;7.20;99.90
63966;DHT22;50151;52.030;5.350;2023-02-12T05:33:46;7.20;99.90
63966;DHT22;50151;52.030;5.350;2023-02-12T05:36:21;7.20;99.90
63966;DHT22;50151;52.030;5.350;2023-02-12T05:38:49;7.20;99.90
63966;DHT22;50151;52.030;5.350;2023-02-12T05:41:21;7.20;99.90
63966;DHT22;50151;52.030;5.350;2023-02-12T05:43:49;7.10;99.90
63966;DHT22;50151;52.030;5.350;2023-02-12T05:46:18;7.10;99.90
63966;DHT22;50151;52.030;5.350;2023-02-12T05:48:45;7.20;99.90
63966;DHT22;50151;52.030;5.350;2023-02-12T05:51:15;7.20;99.90
63966;DHT22;50151;52.030;5.350;2023-02-12T05:53:43;7.20;99.90
63966;DHT22;50151;52.030;5.350;2023-02-12T05:58:41;7.20;99.90
63966;DHT22;50151;52.030;5.350;2023-02-12T06:01:16;7.20;99.90
63966;DHT22;50151;52.030;5.350;2023-02-12T06:03:43;7.20;99.90
63966;DHT22;50151;52.030;5.350;2023-02-12T06:06:10;7.20;99.90
63966;DHT22;50151;52.030;5.350;2023-02-12T06:08:38;7.20;99.90
63966;DHT22;50151;52.030;5.350;2023-02-12T06:11:09;7.20;99.90
63966;DHT22;50151;52.030;5.350;2023-02-12T06:13:38;7.20;99.90
63966;DHT22;50151;52.030;5.350;2023-02-12T06:16:05;7.20;99.90
63966;DHT22;50151;52.030;5.350;2023-02-12T06:18:34;7.20;99.90
63966;DHT22;50151;52.030;5.350;2023-02-12T06:21:04;7.20;99.90
63966;DHT22;50151;52.030;5.350;2023-02-12T06:23:31;7.20;99.90
63966;DHT22;50151;52.030;5.350;2023-02-12T06:25:58;7.10;99.90
63966;DHT22;50151;52.030;5.350;2023-02-12T06:28:25;7.10;99.90
63966;DHT22;50151;52.030;5.350;2023-02-12T06:30:52;7.10;99.90
63966;DHT22;50151;52.030;5.350;2023-02-12T06:33:19;7.10;99.90
63966;DHT22;50151;52.030;5.350;2023-02-12T06:35:45;7.10;99.90
63966;DHT22;50151;52.030;5.350;2023-02-12T06:38:12;7.10;99.90
63966;DHT22;50151;52.030;5.350;2023-02-12T06:40:39;7.10;99.90
63966;DHT22;50151;52.030;5.350;2023-02-12T06:43:06;7.10;99.90
63966;DHT22;50151;52.030;5.350;2023-02-12T06:45:33;7.10;99.90
63966;DHT22;50151;52.030;5.350;2023-02-12T06:48:00;7.10;99.90
63966;DHT22;50151;52.030;5.350;2023-02-12T06:50:27;7.10;99.90
63966;DHT22;50151;52.030;5.350;2023-02-12T06:52:53;7.10;99.90
63966;DHT22;50151;52.030;5.350;2023-02-12T06:55:20;7.10;99.90
63966;DHT22;50151;52.030;5.350;2023-02-12T06:57:47;7.10;99.90
63966;DHT22;50151;52.030;5.350;2023-02-12T07:00:14;7.10;99.90
63966;DHT22;50151;52.030;5.350;2023-02-12T07:02:41;7.10;99.90
63966;DHT22;50151;52.030;5.350;2023-02-12T07:05:07;7.10;99.90
63966;DHT22;50151;52.030;5.350;2023-02-12T07:07:34;7.00;99.90
63966;DHT22;50151;52.030;5.350;2023-02-12T07:10:01;7.00;99.90
63966;DHT22;50151;52.030;5.350;2023-02-12T07:12:27;7.00;99.90
63966;DHT22;50151;52.030;5.350;2023-02-12T07:14:54;7.00;99.90
63966;DHT22;50151;52.030;5.350;2023-02-12T07:17:21;7.00;99.90
63966;DHT22;50151;52.030;5.350;2023-02-12T07:19:50;7.00;99.90
63966;DHT22;50151;52.030;5.350;2023-02-12T07:22:16;7.00;99.90
63966;DHT22;50151;52.030;5.350;2023-02-12T07:24:43;7.10;99.90
63966;DHT22;50151;52.030;5.350;2023-02-12T07:27:11;7.10;99.90
63966;DHT22;50151;52.030;5.350;2023-02-12T07:29:37;7.10;99.90
63966;DHT22;50151;52.030;5.350;2023-02-12T07:32:04;7.10;99.90
63966;DHT22;50151;52.030;5.350;2023-02-12T07:34:31;7.10;99.90
63966;DHT22;50151;52.030;5.350;2023-02-12T07:36:58;7.10;99.90
63966;DHT22;50151;52.030;5.350;2023-02-12T07:39:24;7.10;99.90
63966;DHT22;50151;52.030;5.350;2023-02-12T07:41:51;7.10;99.90
63966;DHT22;50151;52.030;5.350;2023-02-12T07:44:18;7.10;99.90
63966;DHT22;50151;52.030;5.350;2023-02-12T07:46:46;7.10;99.90
63966;DHT22;50151;52.030;5.350;2023-02-12T07:49:17;7.10;99.90
63966;DHT22;50151;52.030;5.350;2023-02-12T07:51:45;7.10;99.90
63966;DHT22;50151;52.030;5.350;2023-02-12T07:54:13;7.10;99.90
63966;DHT22;50151;52.030;5.350;2023-02-12T07:56:41;7.10;99.90
63966;DHT22;50151;52.030;5.350;2023-02-12T07:59:13;7.10;99.90
63966;DHT22;50151;52.030;5.350;2023-02-12T08:01:46;7.10;99.90
63966;DHT22;50151;52.030;5.350;2023-02-12T08:04:16;7.10;99.90
63966;DHT22;50151;52.030;5.350;2023-02-12T08:06:48;7.20;99.90
63966;DHT22;50151;52.030;5.350;2023-02-12T08:09:18;7.20;99.90
63966;DHT22;50151;52.030;5.350;2023-02-12T08:11:45;7.20;99.90
63966;DHT22;50151;52.030;5.350;2023-02-12T08:14:15;7.20;99.90
63966;DHT22;50151;52.030;5.350;2023-02-12T08:16:43;7.20;99.90
63966;DHT22;50151;52.030;5.350;2023-02-12T08:19:10;7.20;99.90
63966;DHT22;50151;52.030;5.350;2023-02-12T08:21:51;7.20;99.90
63966;DHT22;50151;52.030;5.350;2023-02-12T08:24:19;7.20;99.90
63966;DHT22;50151;52.030;5.350;2023-02-12T08:26:47;7.20;99.90
63966;DHT22;50151;52.030;5.350;2023-02-12T08:29:19;7.30;99.90
63966;DHT22;50151;52.030;5.350;2023-02-12T08:31:47;7.30;99.90
63966;DHT22;50151;52.030;5.350;2023-02-12T08:34:20;7.30;99.90
63966;DHT22;50151;52.030;5.350;2023-02-12T08:36:48;7.30;99.90
63966;DHT22;50151;52.030;5.350;2023-02-12T08:39:16;7.30;99.90
63966;DHT22;50151;52.030;5.350;2023-02-12T08:41:44;7.40;99.90
63966;DHT22;50151;52.030;5.350;2023-02-12T08:44:12;7.30;99.90
63966;DHT22;50151;52.030;5.350;2023-02-12T08:46:43;7.30;99.90
63966;DHT22;50151;52.030;5.350;2023-02-12T08:49:21;7.30;99.90
63966;DHT22;50151;52.030;5.350;2023-02-12T08:51:50;7.30;99.90
63966;DHT22;50151;52.030;5.350;2023-02-12T08:54:21;7.30;99.90
63966;DHT22;50151;52.030;5.350;2023-02-12T08:56:48;7.40;99.90
63966;DHT22;50151;52.030;5.350;2023-02-12T08:59:18;7.40;99.90
63966;DHT22;50151;52.030;5.350;2023-02-12T09:01:50;7.40;99.90
63966;DHT22;50151;52.030;5.350;2023-02-12T09:04:20;7.40;99.90
63966;DHT22;50151;52.030;5.350;2023-02-12T09:06:48;7.40;99.90
63966;DHT22;50151;52.030;5.350;2023-02-12T09:09:15;7.40;99.90
63966;DHT22;50151;52.030;5.350;2023-02-12T09:11:43;7.50;99.90
63966;DHT22;50151;52.030;5.350;2023-02-12T09:14:13;7.50;99.90
63966;DHT22;50151;52.030;5.350;2023-02-12T09:16:40;7.50;99.90
63966;DHT22;50151;52.030;5.350;2023-02-12T09:19:09;7.50;99.90
63966;DHT22;50151;52.030;5.350;2023-02-12T09:21:36;7.50;99.90
63966;DHT22;50151;52.030;5.350;2023-02-12T09:24:03;7.60;99.90
63966;DHT22;50151;52.030;5.350;2023-02-12T09:26:30;7.60;99.90
63966;DHT22;50151;52.030;5.350;2023-02-12T09:28:57;7.60;99.90
63966;DHT22;50151;52.030;5.350;2023-02-12T09:31:28;7.60;99.90
63966;DHT22;50151;52.030;5.350;2023-02-12T09:34:01;7.60;99.90
63966;DHT22;50151;52.030;5.350;2023-02-12T09:36:28;7.60;99.90
63966;DHT22;50151;52.030;5.350;2023-02-12T09:38:56;7.70;99.90
63966;DHT22;50151;52.030;5.350;2023-02-12T09:47:02;7.70;99.90
63966;DHT22;50151;52.030;5.350;2023-02-12T09:52:16;7.70;99.90
63966;DHT22;50151;52.030;5.350;2023-02-12T09:54:43;7.80;99.90
63966;DHT22;50151;52.030;5.350;2023-02-12T09:57:31;7.80;99.90
63966;DHT22;50151;52.030;5.350;2023-02-12T10:00:23;7.80;99.90
63966;DHT22;50151;52.030;5.350;2023-02-12T10:02:52;7.80;99.90
63966;DHT22;50151;52.030;5.350;2023-02-12T10:05:32;7.90;99.90
63966;DHT22;50151;52.030;5.350;2023-02-12T10:08:10;7.90;99.90
63966;DHT22;50151;52.030;5.350;2023-02-12T10:16:34;7.90;99.90
63966;DHT22;50151;52.030;5.350;2023-02-12T10:19:36;8.00;99.90
63966;DHT22;50151;52.030;5.350;2023-02-12T10:27:58;7.90;99.90
63966;DHT22;50151;52.030;5.350;2023-02-12T10:33:38;8.00;99.90
63966;DHT22;50151;52.030;5.350;2023-02-12T10:36:17;8.10;99.90
63966;DHT22;50151;52.030;5.350;2023-02-12T10:38:49;8.10;99.90
63966;DHT22;50151;52.030;5.350;2023-02-12T10:41:17;8.10;99.90
63966;DHT22;50151;52.030;5.350;2023-02-12T10:43:46;8.10;99.90
63966;DHT22;50151;52.030;5.350;2023-02-12T10:46:14;8.10;99.90
63966;DHT22;50151;52.030;5.350;2023-02-12T10:48:44;8.20;99.90
63966;DHT22;50151;52.030;5.350;2023-02-12T10:51:55;8.20;99.90
63966;DHT22;50151;52.030;5.350;2023-02-12T10:54:37;8.20;99.90
63966;DHT22;50151;52.030;5.350;2023-02-12T10:57:11;8.10;99.90
63966;DHT22;50151;52.030;5.350;2023-02-12T10:59:40;8.10;99.90
63966;DHT22;50151;52.030;5.350;2023-02-12T11:02:30;8.20;99.90
63966;DHT22;50151;52.030;5.350;2023-02-12T11:04:59;8.20;99.90
63966;DHT22;50151;52.030;5.350;2023-02-12T11:07:45;8.30;99.90
63966;DHT22;50151;52.030;5.350;2023-02-12T11:10:20;8.20;99.90
63966;DHT22;50151;52.030;5.350;2023-02-12T11:12:52;8.30;99.90
63966;DHT22;50151;52.030;5.350;2023-02-12T11:15:22;8.30;99.90
63966;DHT22;50151;52.030;5.350;2023-02-12T11:17:58;8.30;99.90
63966;DHT22;50151;52.030;5.350;2023-02-12T11:20:28;8.30;99.90
63966;DHT22;50151;52.030;5.350;2023-02-12T11:23:02;8.40;99.90
63966;DHT22;50151;52.030;5.350;2023-02-12T11:25:31;8.40;99.90
63966;DHT22;50151;52.030;5.350;2023-02-12T11:28:13;8.40;99.90
63966;DHT22;50151;52.030;5.350;2023-02-12T11:31:02;8.40;99.90
63966;DHT22;50151;52.030;5.350;2023-02-12T11:33:34;8.50;99.90
63966;DHT22;50151;52.030;5.350;2023-02-12T11:36:21;8.50;99.90
63966;DHT22;50151;52.030;5.350;2023-02-12T11:38:52;8.50;99.90
63966;DHT22;50151;52.030;5.350;2023-02-12T11:41:28;8.50;99.90
63966;DHT22;50151;52.030;5.350;2023-02-12T11:45:01;8.50;99.90
63966;DHT22;50151;52.030;5.350;2023-02-12T11:47:07;8.50;99.90
63966;DHT22;50151;52.030;5.350;2023-02-12T11:49:40;8.50;99.90
63966;DHT22;50151;52.030;5.350;2023-02-12T11:52:20;8.60;99.90
63966;DHT22;50151;52.030;5.350;2023-02-12T11:54:50;8.60;99.90
63966;DHT22;50151;52.030;5.350;2023-02-12T11:57:35;8.60;99.90
63966;DHT22;50151;52.030;5.350;2023-02-12T12:00:45;8.50;99.90
63966;DHT22;50151;52.030;5.350;2023-02-12T12:03:28;8.50;99.90
63966;DHT22;50151;52.030;5.350;2023-02-12T12:09:00;8.60;99.90
63966;DHT22;50151;52.030;5.350;2023-02-12T12:14:49;8.70;99.90
63966;DHT22;50151;52.030;5.350;2023-02-12T12:17:48;8.70;99.90
63966;DHT22;50151;52.030;5.350;2023-02-12T12:20:40;8.70;99.90
63966;DHT22;50151;52.030;5.350;2023-02-12T12:23:16;8.70;99.90
63966;DHT22;50151;52.030;5.350;2023-02-12T12:25:47;8.80;99.90
63966;DHT22;50151;52.030;5.350;2023-02-12T12:28:30;8.70;99.90
63966;DHT22;50151;52.030;5.350;2023-02-12T12:31:13;8.80;99.90
63966;DHT22;50151;52.030;5.350;2023-02-12T12:33:49;8.80;99.90
63966;DHT22;50151;52.030;5.350;2023-02-12T12:39:16;8.80;99.90
63966;DHT22;50151;52.030;5.350;2023-02-12T12:53:17;8.80;99.90
63966;DHT22;50151;52.030;5.350;2023-02-12T12:56:00;8.90;99.90
63966;DHT22;50151;52.030;5.350;2023-02-12T12:58:35;8.90;99.90
63966;DHT22;50151;52.030;5.350;2023-02-12T13:01:17;8.80;99.90
63966;DHT22;50151;52.030;5.350;2023-02-12T13:06:55;8.90;99.90
63966;DHT22;50151;52.030;5.350;2023-02-12T13:09:53;8.90;99.90
63966;DHT22;50151;52.030;5.350;2023-02-12T13:12:50;8.90;99.90
63966;DHT22;50151;52.030;5.350;2023-02-12T13:16:23;9.00;99.90
63966;DHT22;50151;52.030;5.350;2023-02-12T13:23:57;9.00;99.90
63966;DHT22;50151;52.030;5.350;2023-02-12T13:29:22;9.00;99.90
63966;DHT22;50151;52.030;5.350;2023-02-12T13:32:04;9.00;99.90
63966;DHT22;50151;52.030;5.350;2023-02-12T13:34:35;9.00;99.90
63966;DHT22;50151;52.030;5.350;2023-02-12T13:37:05;9.00;99.90
63966;DHT22;50151;52.030;5.350;2023-02-12T13:39:41;9.10;99.90
63966;DHT22;50151;52.030;5.350;2023-02-12T13:45:20;9.00;99.90
63966;DHT22;50151;52.030;5.350;2023-02-12T13:47:53;9.00;99.90
63966;DHT22;50151;52.030;5.350;2023-02-12T13:56:49;9.00;99.90
63966;DHT22;50151;52.030;5.350;2023-02-12T14:04:32;9.00;99.90
63966;DHT22;50151;52.030;5.350;2023-02-12T14:07:08;9.00;99.90
63966;DHT22;50151;52.030;5.350;2023-02-12T14:10:00;8.90;99.90
63966;DHT22;50151;52.030;5.350;2023-02-12T14:12:33;8.90;99.90
63966;DHT22;50151;52.030;5.350;2023-02-12T14:20:23;8.90;99.90
63966;DHT22;50151;52.030;5.350;2023-02-12T14:23:22;8.90;99.90
63966;DHT22;50151;52.030;5.350;2023-02-12T14:26:06;8.90;99.90
63966;DHT22;50151;52.030;5.350;2023-02-12T14:33:50;8.90;99.90
63966;DHT22;50151;52.030;5.350;2023-02-12T14:36:38;9.00;99.90
63966;DHT22;50151;52.030;5.350;2023-02-12T14:41:52;8.90;99.90
63966;DHT22;50151;52.030;5.350;2023-02-12T14:47:00;8.80;99.90
63966;DHT22;50151;52.030;5.350;2023-02-12T14:49:39;8.80;99.90
63966;DHT22;50151;52.030;5.350;2023-02-12T14:54:53;8.90;99.90
63966;DHT22;50151;52.030;5.350;2023-02-12T14:59:58;8.90;99.90
63966;DHT22;50151;52.030;5.350;2023-02-12T15:02:33;8.80;99.90
63966;DHT22;50151;52.030;5.350;2023-02-12T15:05:04;8.90;99.90
63966;DHT22;50151;52.030;5.350;2023-02-12T15:07:40;8.80;99.90
63966;DHT22;50151;52.030;5.350;2023-02-12T15:10:31;8.90;99.90
63966;DHT22;50151;52.030;5.350;2023-02-12T15:16:07;8.90;99.90
63966;DHT22;50151;52.030;5.350;2023-02-12T15:18:55;8.90;99.90
63966;DHT22;50151;52.030;5.350;2023-02-12T15:21:27;8.90;99.90
63966;DHT22;50151;52.030;5.350;2023-02-12T15:24:05;8.90;99.90
63966;DHT22;50151;52.030;5.350;2023-02-12T15:26:36;8.90;99.90
63966;DHT22;50151;52.030;5.350;2023-02-12T15:29:23;8.90;99.90
63966;DHT22;50151;52.030;5.350;2023-02-12T15:31:55;8.90;99.90
63966;DHT22;50151;52.030;5.350;2023-02-12T15:34:26;8.90;99.90
63966;DHT22;50151;52.030;5.350;2023-02-12T15:37:01;8.90;99.90
63966;DHT22;50151;52.030;5.350;2023-02-12T15:39:43;8.80;99.90
63966;DHT22;50151;52.030;5.350;2023-02-12T15:47:43;8.80;99.90
63966;DHT22;50151;52.030;5.350;2023-02-12T15:50:16;8.80;99.90
63966;DHT22;50151;52.030;5.350;2023-02-12T15:52:45;8.80;99.90
63966;DHT22;50151;52.030;5.350;2023-02-12T15:55:19;8.80;99.90
63966;DHT22;50151;52.030;5.350;2023-02-12T15:57:55;8.80;99.90
63966;DHT22;50151;52.030;5.350;2023-02-12T16:00:43;8.80;99.90
63966;DHT22;50151;52.030;5.350;2023-02-12T16:03:33;8.80;99.90
63966;DHT22;50151;52.030;5.350;2023-02-12T16:06:03;8.80;99.90
63966;DHT22;50151;52.030;5.350;2023-02-12T16:08:33;8.80;99.90
63966;DHT22;50151;52.030;5.350;2023-02-12T16:11:01;8.70;99.90
63966;DHT22;50151;52.030;5.350;2023-02-12T16:16:21;8.80;99.90
63966;DHT22;50151;52.030;5.350;2023-02-12T16:19:16;8.80;99.90
63966;DHT22;50151;52.030;5.350;2023-02-12T16:21:46;8.70;99.90
63966;DHT22;50151;52.030;5.350;2023-02-12T16:24:24;8.70;99.90
63966;DHT22;50151;52.030;5.350;2023-02-12T16:26:51;8.80;99.90
63966;DHT22;50151;52.030;5.350;2023-02-12T16:29:19;8.70;99.90
63966;DHT22;50151;52.030;5.350;2023-02-12T16:31:58;8.70;99.90
63966;DHT22;50151;52.030;5.350;2023-02-12T16:34:34;8.70;99.90
63966;DHT22;50151;52.030;5.350;2023-02-12T16:42:26;8.60;99.90
63966;DHT22;50151;52.030;5.350;2023-02-12T16:44:55;8.60;99.90
63966;DHT22;50151;52.030;5.350;2023-02-12T16:47:23;8.60;99.90
63966;DHT22;50151;52.030;5.350;2023-02-12T16:49:53;8.60;99.90
63966;DHT22;50151;52.030;5.350;2023-02-12T16:52:33;8.60;99.90
63966;DHT22;50151;52.030;5.350;2023-02-12T16:55:00;8.60;99.90
63966;DHT22;50151;52.030;5.350;2023-02-12T16:57:27;8.50;99.90
63966;DHT22;50151;52.030;5.350;2023-02-12T16:59:53;8.50;99.90
63966;DHT22;50151;52.030;5.350;2023-02-12T17:02:20;8.50;99.90
63966;DHT22;50151;52.030;5.350;2023-02-12T17:04:47;8.50;99.90
63966;DHT22;50151;52.030;5.350;2023-02-12T17:07:19;8.50;99.90
63966;DHT22;50151;52.030;5.350;2023-02-12T17:09:47;8.50;99.90
63966;DHT22;50151;52.030;5.350;2023-02-12T17:12:14;8.50;99.90
63966;DHT22;50151;52.030;5.350;2023-02-12T17:14:41;8.50;99.90
63966;DHT22;50151;52.030;5.350;2023-02-12T17:17:08;8.50;99.90
63966;DHT22;50151;52.030;5.350;2023-02-12T17:19:34;8.50;99.90
63966;DHT22;50151;52.030;5.350;2023-02-12T17:22:01;8.40;99.90
63966;DHT22;50151;52.030;5.350;2023-02-12T17:24:31;8.40;99.90
63966;DHT22;50151;52.030;5.350;2023-02-12T17:27:00;8.40;99.90
63966;DHT22;50151;52.030;5.350;2023-02-12T17:29:27;8.40;99.90
63966;DHT22;50151;52.030;5.350;2023-02-12T17:31:56;8.40;99.90
63966;DHT22;50151;52.030;5.350;2023-02-12T17:34:23;8.40;99.90
63966;DHT22;50151;52.030;5.350;2023-02-12T17:36:51;8.40;99.90
63966;DHT22;50151;52.030;5.350;2023-02-12T17:39:18;8.40;99.90
63966;DHT22;50151;52.030;5.350;2023-02-12T17:41:45;8.40;99.90
63966;DHT22;50151;52.030;5.350;2023-02-12T17:44:12;8.40;99.90
63966;DHT22;50151;52.030;5.350;2023-02-12T17:46:40;8.30;99.90
63966;DHT22;50151;52.030;5.350;2023-02-12T17:49:07;8.30;99.90
63966;DHT22;50151;52.030;5.350;2023-02-12T17:51:34;8.30;99.90
63966;DHT22;50151;52.030;5.350;2023-02-12T17:54:01;8.30;99.90
63966;DHT22;50151;52.030;5.350;2023-02-12T17:56:28;8.30;99.90
63966;DHT22;50151;52.030;5.350;2023-02-12T17:58:55;8.30;99.90
63966;DHT22;50151;52.030;5.350;2023-02-12T18:01:22;8.30;99.90
63966;DHT22;50151;52.030;5.350;2023-02-12T18:03:49;8.30;99.90
63966;DHT22;50151;52.030;5.350;2023-02-12T18:06:23;8.20;99.90
63966;DHT22;50151;52.030;5.350;2023-02-12T18:08:50;8.20;99.90
63966;DHT22;50151;52.030;5.350;2023-02-12T18:11:17;8.10;99.90
63966;DHT22;50151;52.030;5.350;2023-02-12T18:13:47;8.20;99.90
63966;DHT22;50151;52.030;5.350;2023-02-12T18:16:16;8.10;99.90
63966;DHT22;50151;52.030;5.350;2023-02-12T18:18:43;8.10;99.90
63966;DHT22;50151;52.030;5.350;2023-02-12T18:21:11;8.10;99.90
63966;DHT22;50151;52.030;5.350;2023-02-12T18:23:39;8.10;99.90
63966;DHT22;50151;52.030;5.350;2023-02-12T18:26:08;8.10;99.90
63966;DHT22;50151;52.030;5.350;2023-02-12T18:28:35;8.10;99.90
63966;DHT22;50151;52.030;5.350;2023-02-12T18:31:02;8.00;99.90
63966;DHT22;50151;52.030;5.350;2023-02-12T18:33:29;8.10;99.90